Time;durP1;ratioP1;P1;durP2;ratioP2;P2;SDS_P1;SDS_P2;PMS_P1;PMS_P2;Temp;Humidity;BMP_temperature;BMP_pressure;BME280_temperature;BME280_humidity;BME280_pressure;Samples;Min_cycle;Max_cycle;Signal;HPM_P1;HPM_P2
2023/12/12 00:01:31;;;;;;;4.80;1.00;;;;;;;9.44;100.00;95768.81;4997439;28;20227;-69
2023/12/12 00:03:58;;;;;;;1.03;0.90;;;;;;;9.29;100.00;95766.19;4998849;28;20301;-69
2023/12/12 00:06:25;;;;;;;0.70;0.60;;;;;;;9.34;100.00;95760.38;4997401;28;20202;-69
2023/12/12 00:08:53;;;;;;;1.57;0.93;;;;;;;9.52;100.00;95768.72;4996759;28;20710;-68
2023/12/12 00:11:19;;;;;;;3.20;1.30;;;;;;;9.24;100.00;95765.09;5004064;28;20720;-69
2023/12/12 00:13:46;;;;;;;0.73;0.73;;;;;;;9.32;100.00;95772.91;4997419;28;20669;-69
2023/12/12 00:16:13;;;;;;;4.00;0.90;;;;;;;9.16;100.00;95773.91;4998249;28;20236;-69
2023/12/12 00:18:39;;;;;;;2.00;0.90;;;;;;;9.23;100.00;95774.00;4996774;28;20199;-69
2023/12/12 00:21:06;;;;;;;1.30;0.80;;;;;;;9.26;100.00;95778.88;4997341;28;20257;-69
2023/12/12 00:23:33;;;;;;;3.70;1.20;;;;;;;9.16;100.00;95778.31;4997554;28;20680;-69
2023/12/12 00:26:00;;;;;;;1.00;0.90;;;;;;;9.50;100.00;95776.00;4997779;28;20206;-69
2023/12/12 00:28:27;;;;;;;1.70;0.90;;;;;;;9.37;100.00;95766.09;4997362;28;20221;-69
2023/12/12 00:30:53;;;;;;;4.93;1.70;;;;;;;9.53;100.00;95768.53;4997300;28;20241;-69
2023/12/12 00:33:20;;;;;;;2.17;0.97;;;;;;;9.50;100.00;95770.75;4997634;28;20833;-69
2023/12/12 00:35:47;;;;;;;1.20;0.80;;;;;;;9.51;100.00;95775.81;4996995;28;20281;-69
2023/12/12 00:38:13;;;;;;;0.90;0.80;;;;;;;9.58;100.00;95789.06;4997975;28;20202;-69
2023/12/12 00:40:40;;;;;;;2.53;0.90;;;;;;;9.48;100.00;95775.34;4996962;28;20763;-69
2023/12/12 00:43:07;;;;;;;0.80;0.80;;;;;;;9.52;100.00;95779.25;4997181;28;20766;-68
2023/12/12 00:45:34;;;;;;;1.63;1.13;;;;;;;9.43;100.00;95780.34;5004208;28;20202;-69
2023/12/12 00:48:00;;;;;;;2.13;0.70;;;;;;;9.42;100.00;95782.16;4997637;28;20233;-69
2023/12/12 00:50:27;;;;;;;3.60;1.17;;;;;;;9.39;100.00;95781.69;5002115;28;20583;-69
2023/12/12 00:52:54;;;;;;;1.70;1.07;;;;;;;9.28;100.00;95787.41;4996814;28;20207;-69
2023/12/12 00:55:20;;;;;;;1.17;1.03;;;;;;;9.38;100.00;95780.06;4997432;28;20213;-68
2023/12/12 00:57:47;;;;;;;2.13;1.37;;;;;;;9.27;100.00;95786.59;5000656;28;20220;-68
2023/12/12 01:00:17;;;;;;;2.47;1.13;;;;;;;9.33;100.00;95790.28;4999638;28;20234;-69
2023/12/12 01:02:43;;;;;;;1.70;0.97;;;;;;;9.24;100.00;95786.94;5000584;28;20295;-69
2023/12/12 01:05:09;;;;;;;1.67;1.10;;;;;;;9.34;100.00;95791.94;5002476;28;20860;-69
2023/12/12 01:07:36;;;;;;;10.53;1.60;;;;;;;9.30;100.00;95793.28;5000090;28;20230;-69
2023/12/12 01:10:02;;;;;;;2.93;1.10;;;;;;;9.20;100.00;95790.09;5000546;28;20230;-69
2023/12/12 01:12:29;;;;;;;2.57;1.10;;;;;;;9.37;100.00;95792.41;5007026;28;20206;-69
2023/12/12 01:14:58;;;;;;;0.93;0.73;;;;;;;9.25;100.00;95790.38;5000112;28;20296;-69
2023/12/12 01:17:26;;;;;;;2.07;1.20;;;;;;;9.43;100.00;95785.59;5000529;28;20202;-69
2023/12/12 01:19:52;;;;;;;1.30;1.00;;;;;;;9.36;100.00;95787.31;5000506;28;20673;-69
2023/12/12 01:22:19;;;;;;;1.90;1.30;;;;;;;9.30;100.00;95785.41;5001014;28;20203;-69
2023/12/12 01:24:45;;;;;;;2.33;1.10;;;;;;;9.23;100.00;95777.44;5003037;28;20207;-69
2023/12/12 01:27:12;;;;;;;1.97;1.30;;;;;;;9.23;100.00;95780.06;5001253;28;20210;-69
2023/12/12 01:29:38;;;;;;;1.67;1.00;;;;;;;9.15;100.00;95782.78;4999668;28;20229;-69
2023/12/12 01:32:06;;;;;;;6.80;1.50;;;;;;;9.29;100.00;95774.09;5000655;28;20202;-69
2023/12/12 01:34:34;;;;;;;1.83;1.30;;;;;;;9.22;100.00;95767.91;5000809;28;20281;-69
2023/12/12 01:37:00;;;;;;;4.10;1.37;;;;;;;9.20;100.00;95780.44;5000628;28;20233;-69
2023/12/12 01:39:27;;;;;;;3.70;1.30;;;;;;;9.21;100.00;95786.47;4999921;28;20195;-69
2023/12/12 01:41:53;;;;;;;2.73;1.30;;;;;;;9.17;100.00;95780.75;5000184;28;20230;-68
2023/12/12 01:44:20;;;;;;;1.93;1.10;;;;;;;9.25;100.00;95782.50;5000868;28;20294;-69
2023/12/12 01:46:48;;;;;;;1.97;1.10;;;;;;;9.14;100.00;95785.59;5000109;28;20209;-69
2023/12/12 01:49:16;;;;;;;1.70;1.30;;;;;;;9.08;100.00;95775.78;5000457;28;20226;-69
2023/12/12 01:51:46;;;;;;;2.70;1.50;;;;;;;9.36;100.00;95789.94;5000252;28;20589;-69
2023/12/12 01:54:14;;;;;;;3.50;1.73;;;;;;;9.26;100.00;95778.88;5007735;28;20298;-69
2023/12/12 01:56:41;;;;;;;3.27;1.47;;;;;;;9.24;100.00;95780.84;4999973;28;20706;-69
2023/12/12 01:59:08;;;;;;;1.77;1.10;;;;;;;9.08;100.00;95781.03;4999975;28;20207;-69
2023/12/12 02:01:34;;;;;;;1.17;0.90;;;;;;;9.16;100.00;95778.31;5000241;28;20234;-69
2023/12/12 02:04:02;;;;;;;1.17;1.00;;;;;;;9.31;100.00;95776.53;4999536;28;20207;-69
2023/12/12 02:06:29;;;;;;;1.43;0.90;;;;;;;9.27;100.00;95777.88;5000374;28;20302;-69
2023/12/12 02:08:57;;;;;;;1.83;1.03;;;;;;;9.36;100.00;95776.81;4998765;28;20341;-69
2023/12/12 02:11:23;;;;;;;1.50;1.27;;;;;;;9.09;100.00;95766.91;4999816;28;20818;-69
2023/12/12 02:13:50;;;;;;;3.67;1.47;;;;;;;9.26;100.00;95757.84;4999494;28;20754;-69
2023/12/12 02:16:17;;;;;;;8.17;1.43;;;;;;;9.18;100.00;95753.47;5001114;28;20221;-69
2023/12/12 02:18:44;;;;;;;1.57;1.17;;;;;;;9.21;100.00;95765.44;4999038;28;20968;-70
2023/12/12 02:21:10;;;;;;;4.83;1.60;;;;;;;9.02;100.00;95773.03;4999092;28;20222;-70
2023/12/12 02:23:38;;;;;;;4.20;1.67;;;;;;;9.36;100.00;95774.19;4999365;28;20238;-70
2023/12/12 02:26:05;;;;;;;5.80;1.90;;;;;;;9.13;100.00;95768.97;5000063;28;20206;-70
2023/12/12 02:28:31;;;;;;;5.30;1.50;;;;;;;9.04;100.00;95768.41;4999440;28;20249;-70
2023/12/12 02:30:59;;;;;;;3.30;1.70;;;;;;;9.13;100.00;95762.91;4999056;28;20318;-70
2023/12/12 02:33:25;;;;;;;2.30;2.00;;;;;;;9.11;100.00;95762.25;5000061;28;20207;-70
2023/12/12 02:35:52;;;;;;;2.20;1.37;;;;;;;9.10;100.00;95773.81;4999298;28;20221;-70
2023/12/12 02:38:18;;;;;;;2.20;1.17;;;;;;;8.95;100.00;95772.09;4999433;28;20209;-69
2023/12/12 02:40:46;;;;;;;3.30;1.83;;;;;;;9.26;100.00;95771.00;4999110;28;20219;-70
2023/12/12 02:43:13;;;;;;;2.27;1.20;;;;;;;9.09;100.00;95772.16;4999261;28;20214;-70
2023/12/12 02:45:39;;;;;;;2.37;1.17;;;;;;;9.18;100.00;95766.63;4999095;28;20206;-70
2023/12/12 02:48:06;;;;;;;2.90;1.47;;;;;;;9.22;100.00;95757.38;4999626;28;20228;-70
2023/12/12 02:50:32;;;;;;;2.30;1.43;;;;;;;8.94;100.00;95746.84;4998837;28;20221;-70
2023/12/12 02:52:59;;;;;;;1.67;1.40;;;;;;;9.14;100.00;95744.34;5000994;28;20800;-69
2023/12/12 02:55:24;;;;;;;1.67;1.17;;;;;;;8.91;100.00;95742.78;4999322;28;20206;-69
2023/12/12 02:57:52;;;;;;;3.70;1.40;;;;;;;9.26;100.00;95745.50;4999313;28;20202;-70
2023/12/12 03:00:19;;;;;;;1.57;1.30;;;;;;;9.07;100.00;95739.97;4998619;28;20226;-70
2023/12/12 03:02:46;;;;;;;2.23;1.33;;;;;;;8.92;100.00;95743.56;4998759;28;20203;-70
2023/12/12 03:05:12;;;;;;;2.90;1.63;;;;;;;9.03;100.00;95743.97;5000242;28;20217;-70
2023/12/12 03:07:38;;;;;;;4.50;1.97;;;;;;;9.16;100.00;95752.03;5005450;28;20214;-69
2023/12/12 03:10:06;;;;;;;2.97;1.50;;;;;;;9.26;100.00;95763.91;4998329;28;20226;-70
2023/12/12 03:12:33;;;;;;;4.37;1.70;;;;;;;9.20;100.00;95755.94;4998732;28;20215;-70
2023/12/12 03:15:00;;;;;;;2.43;1.20;;;;;;;9.30;100.00;95756.50;4998506;28;20213;-70
2023/12/12 03:17:27;;;;;;;5.47;1.90;;;;;;;9.15;100.00;95751.22;4998642;28;20206;-70
2023/12/12 03:19:53;;;;;;;2.57;1.77;;;;;;;9.11;100.00;95746.50;4996636;28;20210;-70
2023/12/12 03:22:20;;;;;;;7.10;1.67;;;;;;;9.14;100.00;95748.78;4999637;28;20206;-70
2023/12/12 03:24:46;;;;;;;3.23;1.73;;;;;;;8.99;100.00;95755.81;5005188;28;20217;-70
2023/12/12 03:27:13;;;;;;;3.27;1.50;;;;;;;9.08;100.00;95745.03;4998455;28;20206;-70
2023/12/12 03:29:39;;;;;;;1.87;1.30;;;;;;;9.07;100.00;95745.22;4999001;28;20312;-70
2023/12/12 03:32:07;;;;;;;3.27;1.47;;;;;;;9.07;100.00;95750.47;4998434;28;20207;-70
2023/12/12 03:34:33;;;;;;;1.40;1.30;;;;;;;8.76;100.00;95757.69;4997734;28;20573;-70
2023/12/12 03:37:00;;;;;;;3.70;1.80;;;;;;;8.92;100.00;95756.72;4998210;28;20704;-70
2023/12/12 03:39:26;;;;;;;3.93;1.80;;;;;;;8.85;100.00;95745.28;5001626;28;20206;-70
2023/12/12 03:41:52;;;;;;;4.13;1.70;;;;;;;8.85;100.00;95753.97;5002394;28;20226;-70
2023/12/12 03:44:19;;;;;;;6.20;1.87;;;;;;;8.86;100.00;95750.38;4998770;28;21027;-70
2023/12/12 03:46:45;;;;;;;3.67;1.53;;;;;;;8.92;100.00;95731.25;4997910;28;20680;-69
2023/12/12 03:49:13;;;;;;;5.03;1.87;;;;;;;8.93;100.00;95724.19;4996192;28;20237;-70
2023/12/12 03:51:40;;;;;;;4.87;2.57;;;;;;;8.89;100.00;95712.41;4998031;28;20304;-70
2023/12/12 03:54:09;;;;;;;3.27;1.83;;;;;;;8.84;100.00;95718.19;4998355;28;20214;-70
2023/12/12 03:56:35;;;;;;;3.17;2.23;;;;;;;8.69;100.00;95730.50;4998209;28;20210;-70
2023/12/12 03:59:02;;;;;;;5.00;2.57;;;;;;;8.88;100.00;95732.59;4997076;28;20238;-70
2023/12/12 04:01:28;;;;;;;2.63;1.80;;;;;;;8.74;100.00;95725.50;4998376;28;20218;-70
2023/12/12 04:03:55;;;;;;;3.63;2.03;;;;;;;8.86;100.00;95725.88;4997697;28;20206;-70
2023/12/12 04:06:23;;;;;;;3.73;1.93;;;;;;;8.85;100.00;95722.47;4999353;28;20206;-70
2023/12/12 04:08:50;;;;;;;4.73;1.97;;;;;;;8.88;100.00;95721.28;4996883;28;20225;-70
2023/12/12 04:11:16;;;;;;;2.30;1.53;;;;;;;8.78;100.00;95726.81;4997915;28;20767;-70
2023/12/12 04:13:43;;;;;;;4.00;2.20;;;;;;;8.83;100.00;95734.94;5002615;28;20202;-70
2023/12/12 04:16:09;;;;;;;4.37;2.27;;;;;;;8.89;100.00;95738.69;4999900;28;20210;-70
2023/12/12 04:18:36;;;;;;;4.70;2.00;;;;;;;8.71;100.00;95731.13;4997176;28;20203;-70
2023/12/12 04:21:02;;;;;;;4.53;2.50;;;;;;;8.64;100.00;95724.13;4999875;28;20249;-70
2023/12/12 04:23:30;;;;;;;3.37;1.90;;;;;;;8.68;100.00;95715.72;5000827;28;20212;-70
2023/12/12 04:25:56;;;;;;;4.03;2.27;;;;;;;8.66;100.00;95722.97;5001634;28;20203;-70
2023/12/12 04:28:23;;;;;;;4.23;2.10;;;;;;;8.58;100.00;95722.22;5000405;28;20604;-70
2023/12/12 04:30:49;;;;;;;3.77;1.80;;;;;;;8.72;100.00;95710.94;4999602;28;20222;-70
2023/12/12 04:33:16;;;;;;;3.27;2.07;;;;;;;8.79;100.00;95704.78;5009508;28;20212;-70
2023/12/12 04:35:43;;;;;;;5.53;2.67;;;;;;;8.84;100.00;95704.25;4998085;28;20207;-70
2023/12/12 04:38:09;;;;;;;4.37;2.63;;;;;;;8.80;100.00;95697.72;4999669;28;20203;-70
2023/12/12 04:40:37;;;;;;;4.03;2.30;;;;;;;8.89;100.00;95702.72;5001677;28;20227;-70
2023/12/12 04:43:04;;;;;;;7.47;2.07;;;;;;;8.79;100.00;95702.16;5010156;28;20205;-70
2023/12/12 04:45:30;;;;;;;5.73;2.33;;;;;;;8.91;100.00;95703.34;5001278;28;20315;-70
2023/12/12 04:47:56;;;;;;;6.47;2.13;;;;;;;8.97;100.00;95700.00;5003866;28;20228;-71
2023/12/12 04:50:23;;;;;;;5.27;2.27;;;;;;;8.81;100.00;95691.50;4999203;28;20238;-70
2023/12/12 04:52:50;;;;;;;4.50;2.70;;;;;;;9.00;100.00;95689.16;4999220;28;20202;-70
2023/12/12 04:55:17;;;;;;;4.03;2.40;;;;;;;8.97;100.00;95686.06;4997283;28;20242;-70
2023/12/12 04:57:46;;;;;;;5.17;2.17;;;;;;;9.22;100.00;95688.22;4997698;28;20205;-70
2023/12/12 05:00:14;;;;;;;4.53;2.20;;;;;;;9.18;100.00;95689.59;4996996;28;20242;-69
2023/12/12 05:02:41;;;;;;;2.97;1.87;;;;;;;9.11;100.00;95694.75;4997750;28;20214;-70
2023/12/12 05:05:08;;;;;;;4.03;2.30;;;;;;;9.09;100.00;95688.06;4996865;28;20276;-70
2023/12/12 05:07:34;;;;;;;3.10;2.10;;;;;;;9.05;100.00;95693.84;4997361;28;20206;-70
2023/12/12 05:10:01;;;;;;;3.83;2.03;;;;;;;8.96;100.00;95706.28;4996815;28;20600;-69
2023/12/12 05:12:27;;;;;;;3.40;2.23;;;;;;;9.08;100.00;95696.94;4997621;28;20219;-70
2023/12/12 05:14:55;;;;;;;8.67;2.53;;;;;;;9.22;100.00;95701.38;4996959;28;20317;-70
2023/12/12 05:17:22;;;;;;;5.70;2.67;;;;;;;8.88;100.00;95687.94;4997942;28;20202;-70
2023/12/12 05:19:48;;;;;;;4.77;2.40;;;;;;;9.07;100.00;95683.97;4996498;28;20199;-70
2023/12/12 05:22:15;;;;;;;4.70;2.53;;;;;;;9.03;100.00;95683.50;5004610;28;20708;-70
2023/12/12 05:24:41;;;;;;;5.87;2.50;;;;;;;9.05;100.00;95688.59;5003520;28;20210;-70
2023/12/12 05:27:08;;;;;;;2.90;2.27;;;;;;;9.05;100.00;95676.28;4997300;28;20211;-70
2023/12/12 05:29:35;;;;;;;4.23;2.37;;;;;;;9.02;100.00;95673.19;4996850;28;21014;-70
2023/12/12 05:32:03;;;;;;;4.83;1.97;;;;;;;9.07;100.00;95670.84;4996455;28;21076;-70
2023/12/12 05:34:30;;;;;;;3.80;2.53;;;;;;;8.89;100.00;95683.50;4997068;28;20226;-70
2023/12/12 05:36:56;;;;;;;3.33;2.30;;;;;;;8.86;100.00;95687.31;4997039;28;20206;-70
2023/12/12 05:39:23;;;;;;;3.37;2.10;;;;;;;8.84;100.00;95686.66;4996301;28;20210;-70
2023/12/12 05:41:49;;;;;;;5.03;2.73;;;;;;;8.81;100.00;95688.84;5002783;28;20219;-71
2023/12/12 05:44:16;;;;;;;3.80;2.13;;;;;;;8.83;100.00;95686.84;4999991;28;20206;-71
2023/12/12 05:46:43;;;;;;;6.03;3.03;;;;;;;8.73;100.00;95702.88;5000118;28;20559;-71
2023/12/12 05:49:11;;;;;;;7.17;3.27;;;;;;;8.97;100.00;95694.75;4999816;28;20696;-71
2023/12/12 05:51:39;;;;;;;5.63;2.80;;;;;;;8.84;100.00;95684.03;5000381;28;20606;-71
2023/12/12 05:54:06;;;;;;;4.57;2.40;;;;;;;8.91;100.00;95677.09;5000049;28;20246;-71
2023/12/12 05:56:33;;;;;;;4.03;2.30;;;;;;;8.86;100.00;95670.72;5007681;28;20210;-71
2023/12/12 05:59:00;;;;;;;4.33;2.63;;;;;;;8.86;100.00;95661.03;5000372;28;20219;-71
2023/12/12 06:01:26;;;;;;;8.93;2.93;;;;;;;8.77;100.00;95656.88;5000540;28;20226;-71
2023/12/12 06:03:52;;;;;;;5.20;2.80;;;;;;;8.70;100.00;95660.38;4999410;28;20223;-71
2023/12/12 06:06:21;;;;;;;4.90;2.97;;;;;;;8.86;100.00;95660.22;5000540;28;20681;-71
2023/12/12 06:08:47;;;;;;;3.83;2.40;;;;;;;8.65;100.00;95663.53;5000289;28;20237;-71
2023/12/12 06:11:15;;;;;;;7.70;2.80;;;;;;;8.64;100.00;95653.22;4999355;28;20241;-71
2023/12/12 06:13:42;;;;;;;5.10;2.60;;;;;;;8.62;100.00;95653.41;4999326;28;20202;-70
2023/12/12 06:16:09;;;;;;;6.23;2.10;;;;;;;8.61;100.00;95641.25;4999378;28;20696;-71
2023/12/12 06:18:35;;;;;;;2.00;1.53;;;;;;;8.55;100.00;95626.25;4999256;28;20214;-71
2023/12/12 06:21:02;;;;;;;5.10;2.07;;;;;;;8.29;100.00;95627.63;4999382;28;20226;-71
2023/12/12 06:23:30;;;;;;;3.40;1.57;;;;;;;8.48;100.00;95629.75;5000315;28;20317;-70
2023/12/12 06:25:57;;;;;;;2.87;2.10;;;;;;;8.44;100.00;95638.16;4999572;28;20301;-70
2023/12/12 06:28:23;;;;;;;4.37;2.00;;;;;;;8.60;100.00;95644.91;4999830;28;20210;-70
2023/12/12 06:30:50;;;;;;;2.93;1.90;;;;;;;8.46;100.00;95641.44;4998339;28;20233;-71
2023/12/12 06:33:18;;;;;;;3.13;1.93;;;;;;;8.51;100.00;95645.97;4999762;28;20217;-70
2023/12/12 06:35:45;;;;;;;3.97;1.53;;;;;;;8.61;100.00;95651.75;4999372;28;20696;-70
2023/12/12 06:38:11;;;;;;;3.80;2.30;;;;;;;8.63;100.00;95643.69;4999280;28;20202;-70
2023/12/12 06:40:39;;;;;;;2.53;1.57;;;;;;;8.80;100.00;95656.50;4999303;28;20242;-71
2023/12/12 06:43:05;;;;;;;3.37;2.10;;;;;;;8.73;100.00;95655.59;4999285;28;20214;-71
2023/12/12 06:45:32;;;;;;;2.90;2.03;;;;;;;8.75;100.00;95647.53;4999474;28;20210;-71
2023/12/12 06:47:58;;;;;;;3.50;2.00;;;;;;;8.78;100.00;95649.78;4999205;28;20635;-71
2023/12/12 06:50:25;;;;;;;6.10;1.53;;;;;;;8.57;100.00;95654.94;4998583;28;20234;-71
2023/12/12 06:52:51;;;;;;;4.80;2.43;;;;;;;8.70;100.00;95658.56;5000014;28;20199;-71
2023/12/12 06:55:18;;;;;;;5.20;2.70;;;;;;;8.75;100.00;95652.78;5004725;28;20221;-71
2023/12/12 06:57:46;;;;;;;1.97;1.23;;;;;;;9.23;100.00;95648.63;4999074;28;20219;-71
2023/12/12 07:00:14;;;;;;;2.97;1.73;;;;;;;9.01;100.00;95656.59;4998413;28;20249;-71
2023/12/12 07:02:40;;;;;;;6.07;2.47;;;;;;;8.72;100.00;95653.97;5003052;28;20261;-71
2023/12/12 07:05:07;;;;;;;76.17;19.27;;;;;;;8.72;100.00;95653.97;4998860;28;20206;-71
2023/12/12 07:07:34;;;;;;;93.27;29.63;;;;;;;8.61;100.00;95643.88;4999583;28;20207;-71
2023/12/12 07:10:02;;;;;;;48.77;16.43;;;;;;;8.66;100.00;95644.16;5002657;28;20235;-71
2023/12/12 07:12:28;;;;;;;46.70;15.53;;;;;;;8.75;100.00;95629.16;4999186;28;20241;-71
2023/12/12 07:14:56;;;;;;;40.97;13.47;;;;;;;8.91;100.00;95627.16;4998343;28;20203;-70
2023/12/12 07:17:23;;;;;;;35.13;12.80;;;;;;;8.82;100.00;95622.16;5000062;28;20213;-71
2023/12/12 07:19:49;;;;;;;30.73;11.60;;;;;;;8.70;100.00;95615.75;4998089;28;20592;-71
2023/12/12 07:22:16;;;;;;;18.63;7.70;;;;;;;8.70;100.00;95615.75;5001243;28;20709;-71
2023/12/12 07:24:43;;;;;;;16.23;6.87;;;;;;;8.78;100.00;95608.59;4999142;28;20265;-70
2023/12/12 07:27:10;;;;;;;16.37;6.13;;;;;;;8.73;100.00;95613.56;4998624;28;20202;-71
2023/12/12 07:29:36;;;;;;;8.57;3.77;;;;;;;8.69;100.00;95612.31;5000528;28;20232;-71
2023/12/12 07:32:06;;;;;;;16.17;6.43;;;;;;;8.86;100.00;95620.81;5008691;28;20225;-71
2023/12/12 07:34:33;;;;;;;12.17;3.83;;;;;;;8.68;100.00;95631.69;5000123;28;20206;-71
2023/12/12 07:36:59;;;;;;;10.77;4.40;;;;;;;8.79;100.00;95623.34;4999214;28;20217;-71
2023/12/12 07:39:26;;;;;;;11.10;3.87;;;;;;;8.84;100.00;95623.63;5001956;28;21147;-71
2023/12/12 07:41:52;;;;;;;7.27;2.73;;;;;;;8.90;100.00;95635.25;4998630;28;20237;-71
2023/12/12 07:44:19;;;;;;;6.50;2.90;;;;;;;8.89;100.00;95637.03;4997463;28;20207;-71
2023/12/12 07:46:45;;;;;;;5.07;2.47;;;;;;;8.84;100.00;95630.69;4998557;28;20206;-71
2023/12/12 07:49:13;;;;;;;5.07;2.23;;;;;;;8.89;100.00;95634.41;5002796;28;20207;-71
2023/12/12 07:51:39;;;;;;;5.13;2.40;;;;;;;8.82;100.00;95638.75;5002963;28;20218;-70
2023/12/12 07:54:06;;;;;;;4.03;2.10;;;;;;;8.86;100.00;95644.44;4997561;28;20207;-69
2023/12/12 07:56:33;;;;;;;7.43;2.00;;;;;;;8.88;100.00;95634.59;4999574;28;20203;-69
2023/12/12 07:58:59;;;;;;;4.10;2.17;;;;;;;8.87;100.00;95648.72;4997512;28;20688;-70
2023/12/12 08:01:26;;;;;;;5.60;2.30;;;;;;;8.89;100.00;95644.91;5000501;28;20246;-68
2023/12/12 08:03:53;;;;;;;13.60;2.40;;;;;;;8.90;100.00;95646.56;4998114;28;20211;-69
2023/12/12 08:06:21;;;;;;;3.77;2.20;;;;;;;8.92;100.00;95649.00;4996572;28;20553;-69
2023/12/12 08:08:47;;;;;;;7.07;3.13;;;;;;;8.86;100.00;95650.53;4995208;28;21022;-70
2023/12/12 08:11:14;;;;;;;10.73;3.87;;;;;;;8.95;100.00;95651.25;4995938;28;20232;-71
2023/12/12 08:13:40;;;;;;;7.20;2.70;;;;;;;8.98;100.00;95649.06;4997049;28;20201;-71
2023/12/12 08:16:08;;;;;;;8.77;2.87;;;;;;;9.12;100.00;95650.88;5002496;28;20201;-71
2023/12/12 08:18:37;;;;;;;4.43;2.07;;;;;;;9.11;100.00;95644.84;4998285;28;20257;-70
2023/12/12 08:21:04;;;;;;;6.90;2.47;;;;;;;9.16;100.00;95646.91;4997888;28;20225;-71
2023/12/12 08:23:32;;;;;;;8.60;2.53;;;;;;;9.37;100.00;95639.91;4997796;28;20944;-70
2023/12/12 08:25:59;;;;;;;3.00;1.57;;;;;;;9.25;100.00;95646.63;5001822;28;20214;-71
2023/12/12 08:28:25;;;;;;;5.07;1.60;;;;;;;9.33;100.00;95640.44;4996687;28;20660;-71
2023/12/12 08:30:52;;;;;;;2.53;1.60;;;;;;;9.27;100.00;95628.03;4996433;28;20233;-71
2023/12/12 08:33:20;;;;;;;1.43;1.27;;;;;;;9.27;100.00;95638.56;4997350;28;20209;-71
2023/12/12 08:35:46;;;;;;;4.23;2.10;;;;;;;9.33;100.00;95636.00;4998034;28;20229;-71
2023/12/12 08:38:13;;;;;;;2.90;1.67;;;;;;;9.44;100.00;95621.56;4996487;28;20212;-71
2023/12/12 08:40:41;;;;;;;3.37;2.30;;;;;;;9.53;100.00;95623.88;4996973;28;20226;-71
2023/12/12 08:43:07;;;;;;;2.50;1.60;;;;;;;9.36;100.00;95627.75;4997464;28;20207;-71
2023/12/12 08:45:34;;;;;;;3.73;1.97;;;;;;;9.46;100.00;95624.84;4997661;28;20206;-71
2023/12/12 08:48:00;;;;;;;2.77;1.80;;;;;;;9.38;100.00;95644.16;4997650;28;20206;-71
2023/12/12 08:50:27;;;;;;;2.13;1.63;;;;;;;9.42;100.00;95626.19;4996830;28;20234;-71
2023/12/12 08:52:53;;;;;;;3.90;1.70;;;;;;;9.49;100.00;95638.41;4997056;28;20207;-71
2023/12/12 08:55:20;;;;;;;2.53;1.53;;;;;;;9.57;100.00;95629.59;4997511;28;20236;-71
2023/12/12 08:57:48;;;;;;;2.40;1.60;;;;;;;9.81;100.00;95624.81;4997940;28;20202;-71
2023/12/12 09:00:15;;;;;;;2.37;1.60;;;;;;;9.81;100.00;95609.03;4996258;28;20218;-71
2023/12/12 09:02:42;;;;;;;1.87;1.13;;;;;;;9.71;100.00;95600.63;4997790;28;20603;-71
2023/12/12 09:05:09;;;;;;;3.00;1.53;;;;;;;9.81;100.00;95590.59;4996593;28;20253;-71
2023/12/12 09:07:35;;;;;;;3.40;1.60;;;;;;;9.82;100.00;95592.25;4996537;28;20488;-71
2023/12/12 09:10:03;;;;;;;3.53;1.73;;;;;;;10.00;100.00;95582.13;4996687;28;20230;-71
2023/12/12 09:12:30;;;;;;;1.27;1.17;;;;;;;9.95;100.00;95564.25;4996717;28;20375;-71
2023/12/12 09:14:58;;;;;;;1.63;1.10;;;;;;;10.20;100.00;95560.22;4996823;28;20981;-71
2023/12/12 09:17:24;;;;;;;2.30;1.20;;;;;;;9.89;100.00;95551.00;4997792;28;20203;-71
2023/12/12 09:19:51;;;;;;;1.70;1.10;;;;;;;10.03;100.00;95539.63;4999775;28;20202;-71
2023/12/12 09:22:17;;;;;;;1.80;1.27;;;;;;;10.13;100.00;95548.84;5000051;28;20669;-71
2023/12/12 09:24:44;;;;;;;1.07;0.80;;;;;;;10.01;100.00;95550.34;5002996;28;20251;-71
2023/12/12 09:27:10;;;;;;;1.87;1.10;;;;;;;9.96;100.00;95551.91;5005174;28;20676;-71
2023/12/12 09:29:37;;;;;;;2.67;1.10;;;;;;;10.05;100.00;95540.25;4999905;28;20233;-71
2023/12/12 09:32:06;;;;;;;2.43;1.13;;;;;;;10.15;100.00;95536.28;5000105;28;20256;-71
2023/12/12 09:34:33;;;;;;;1.30;1.00;;;;;;;9.96;100.00;95541.41;5000147;28;20719;-71
2023/12/12 09:36:59;;;;;;;1.00;0.87;;;;;;;10.13;100.00;95532.22;5000116;28;20681;-71
2023/12/12 09:39:26;;;;;;;2.83;1.03;;;;;;;10.20;100.00;95523.34;4999107;28;20700;-71
2023/12/12 09:41:54;;;;;;;1.07;0.87;;;;;;;10.29;100.00;95527.47;5000381;28;20229;-71
2023/12/12 09:44:20;;;;;;;1.00;0.90;;;;;;;10.12;100.00;95541.94;5001542;28;20206;-71
2023/12/12 09:46:48;;;;;;;1.77;1.30;;;;;;;10.27;100.00;95534.75;4999971;28;20615;-71
2023/12/12 09:49:18;;;;;;;2.93;1.53;;;;;;;10.26;100.00;95525.22;4998477;28;20583;-71
2023/12/12 09:51:45;;;;;;;3.37;1.50;;;;;;;10.31;100.00;95524.63;4999761;28;20236;-71
2023/12/12 09:54:12;;;;;;;5.80;1.97;;;;;;;10.45;100.00;95520.09;4999150;28;20891;-71
2023/12/12 09:56:39;;;;;;;2.40;1.43;;;;;;;10.44;100.00;95541.38;4999983;28;20626;-71
2023/12/12 09:59:06;;;;;;;3.20;1.47;;;;;;;10.44;100.00;95547.44;5004837;28;20259;-71
2023/12/12 10:01:34;;;;;;;6.40;2.50;;;;;;;10.58;100.00;95553.59;5000858;28;20228;-71
2023/12/12 10:04:04;;;;;;;6.87;2.50;;;;;;;10.62;100.00;95549.56;4999637;28;20547;-71
2023/12/12 10:06:35;;;;;;;5.47;1.53;;;;;;;10.55;100.00;95552.19;4999832;28;20559;-71
2023/12/12 10:09:03;;;;;;;8.07;1.83;;;;;;;10.29;100.00;95545.91;5006599;28;20210;-70
2023/12/12 10:11:30;;;;;;;3.20;1.70;;;;;;;10.20;100.00;95541.00;4999215;28;20230;-71
2023/12/12 10:13:58;;;;;;;2.87;1.70;;;;;;;10.26;100.00;95527.88;5000139;28;20533;-71
2023/12/12 10:16:25;;;;;;;2.37;1.67;;;;;;;10.17;100.00;95525.56;4999601;28;20739;-71
2023/12/12 10:18:52;;;;;;;2.17;1.57;;;;;;;10.11;100.00;95519.25;5002731;28;20209;-71
2023/12/12 10:21:20;;;;;;;5.50;2.50;;;;;;;10.03;100.00;95514.13;5014084;28;20236;-70
2023/12/12 10:23:50;;;;;;;7.87;2.87;;;;;;;10.17;100.00;95512.38;5017402;28;20316;-70
2023/12/12 10:26:24;;;;;;;3.87;2.50;;;;;;;9.94;100.00;95507.34;5017737;28;20202;-70
2023/12/12 10:28:52;;;;;;;3.40;2.00;;;;;;;9.90;100.00;95503.47;5017213;28;20201;-70
2023/12/12 10:31:19;;;;;;;4.80;2.00;;;;;;;9.87;100.00;95508.28;5017940;28;20226;-70
2023/12/12 10:33:46;;;;;;;4.70;2.30;;;;;;;9.84;100.00;95506.06;5009174;28;20238;-70
2023/12/12 10:36:12;;;;;;;5.23;2.30;;;;;;;9.89;100.00;95507.09;5009236;28;20681;-70
2023/12/12 10:38:39;;;;;;;3.07;2.10;;;;;;;9.95;100.00;95506.34;5010453;28;20209;-70
2023/12/12 10:41:15;;;;;;;3.90;2.33;;;;;;;10.08;100.00;95506.47;5014949;28;21180;-70
2023/12/12 10:43:43;;;;;;;3.43;2.00;;;;;;;9.89;100.00;95498.38;5012760;28;20216;-70
2023/12/12 10:46:12;;;;;;;3.03;1.90;;;;;;;9.88;100.00;95494.94;5015356;28;20198;-70
2023/12/12 10:48:44;;;;;;;4.30;2.33;;;;;;;10.06;100.00;95487.41;4998842;28;20202;-70
2023/12/12 10:51:11;;;;;;;2.67;1.93;;;;;;;9.94;100.00;95481.03;4997654;28;20226;-70
2023/12/12 10:53:38;;;;;;;2.27;1.93;;;;;;;9.83;100.00;95478.91;4998075;28;20213;-70
2023/12/12 10:56:07;;;;;;;3.13;2.17;;;;;;;9.94;100.00;95481.03;4998250;28;20203;-70
2023/12/12 10:58:36;;;;;;;4.17;2.03;;;;;;;10.10;100.00;95469.44;5002562;28;20217;-70
2023/12/12 11:01:03;;;;;;;3.87;2.10;;;;;;;9.87;100.00;95464.38;4998094;28;20234;-70
2023/12/12 11:03:30;;;;;;;5.77;3.40;;;;;;;9.90;100.00;95457.91;4999450;28;20207;-70
2023/12/12 11:05:58;;;;;;;4.20;2.10;;;;;;;9.84;100.00;95454.22;5005785;28;20213;-70
2023/12/12 11:08:25;;;;;;;6.37;2.27;;;;;;;9.86;100.00;95449.59;4997712;28;20213;-70
2023/12/12 11:10:52;;;;;;;6.13;2.80;;;;;;;9.81;100.00;95446.72;4997861;28;20230;-70
2023/12/12 11:13:20;;;;;;;5.20;2.37;;;;;;;9.96;100.00;95457.97;4998347;28;20617;-71
2023/12/12 11:15:49;;;;;;;4.93;2.87;;;;;;;10.07;100.00;95454.84;4998712;28;20214;-70
2023/12/12 11:18:16;;;;;;;7.00;3.47;;;;;;;9.89;100.00;95451.84;4999867;28;20207;-71
2023/12/12 11:20:42;;;;;;;8.13;2.67;;;;;;;9.92;100.00;95451.44;4999579;28;20229;-70
2023/12/12 11:23:09;;;;;;;8.43;2.70;;;;;;;9.99;100.00;95441.81;4997990;28;20215;-70
2023/12/12 11:25:38;;;;;;;5.87;2.53;;;;;;;10.07;100.00;95444.31;4998113;28;20217;-70
2023/12/12 11:28:05;;;;;;;2.70;1.90;;;;;;;10.09;100.00;95438.84;4998856;28;20642;-70
2023/12/12 11:30:37;;;;;;;4.57;2.57;;;;;;;10.36;100.00;95430.88;5000047;28;20795;-70